createdAt,value
2023-02-09T00:01:30.236Z,1.93
2023-02-09T00:03:59.404Z,2.85
2023-02-09T00:06:29.980Z,7.23
2023-02-09T00:08:59.088Z,5.43
2023-02-09T00:11:43.593Z,2.40
2023-02-09T00:14:12.859Z,6.63
2023-02-09T00:16:41.419Z,1.60
2023-02-09T00:19:09.254Z,8.93
2023-02-09T00:21:37.345Z,1.97
2023-02-09T00:24:05.440Z,6.40
2023-02-09T00:26:33.363Z,23.87
2023-02-09T00:29:01.264Z,2.07
2023-02-09T00:31:29.129Z,3.23
2023-02-09T00:33:59.475Z,5.80
2023-02-09T00:36:28.260Z,3.00
2023-02-09T00:38:57.335Z,7.63
2023-02-09T00:41:38.914Z,2.07
2023-02-09T00:44:06.642Z,4.30
2023-02-09T00:46:34.269Z,18.87
2023-02-09T00:49:01.938Z,8.00
2023-02-09T00:51:29.579Z,3.67
2023-02-09T00:53:57.242Z,6.20
2023-02-09T00:56:25.035Z,4.53
2023-02-09T00:58:52.685Z,1.43
2023-02-09T01:01:20.416Z,5.73
2023-02-09T01:03:48.335Z,9.23
2023-02-09T01:06:16.168Z,3.40
2023-02-09T01:08:43.833Z,3.83
2023-02-09T01:11:14.878Z,2.50
2023-02-09T01:13:43.646Z,5.50
2023-02-09T01:16:14.580Z,5.57
2023-02-09T01:18:43.223Z,2.50
2023-02-09T01:21:16.880Z,18.97
2023-02-09T01:23:44.797Z,6.97
2023-02-09T01:26:13.577Z,4.33
2023-02-09T01:28:41.682Z,1.53
2023-02-09T01:31:19.669Z,3.83
2023-02-09T01:33:47.536Z,3.20
2023-02-09T01:36:15.204Z,3.00
2023-02-09T01:38:42.994Z,11.70
2023-02-09T01:41:10.869Z,2.77
2023-02-09T01:44:17.386Z,4.23
2023-02-09T01:46:47.581Z,4.97
2023-02-09T01:49:17.365Z,3.63
2023-02-09T01:51:52.875Z,3.93
2023-02-09T01:54:27.076Z,3.23
2023-02-09T01:57:00.880Z,4.67
2023-02-09T01:59:29.294Z,3.27
2023-02-09T02:01:57.166Z,13.20
2023-02-09T02:04:24.901Z,11.07
2023-02-09T02:06:58.923Z,7.30
2023-02-09T02:09:26.642Z,3.47
2023-02-09T02:11:54.396Z,1.60
2023-02-09T02:14:29.044Z,4.43
2023-02-09T02:17:08.918Z,3.73
2023-02-09T02:19:40.127Z,5.83
2023-02-09T02:22:35.662Z,3.53
2023-02-09T02:25:30.342Z,5.33
2023-02-09T02:28:49.692Z,7.53
2023-02-09T02:31:37.990Z,8.53
2023-02-09T02:34:13.819Z,5.63
2023-02-09T02:37:06.368Z,5.40
2023-02-09T02:40:02.452Z,8.20
2023-02-09T02:42:56.316Z,11.70
2023-02-09T02:45:48.753Z,7.00
2023-02-09T02:48:46.717Z,11.53
2023-02-09T02:51:23.658Z,11.57
2023-02-09T02:53:55.993Z,7.23
2023-02-09T02:56:45.297Z,6.30
2023-02-09T02:59:18.091Z,8.63
2023-02-09T03:02:01.889Z,9.50
2023-02-09T03:04:31.571Z,5.53
2023-02-09T03:06:59.304Z,6.73
2023-02-09T03:09:27.071Z,7.13
2023-02-09T03:11:59.328Z,12.23
2023-02-09T03:15:14.571Z,4.33
2023-02-09T03:17:56.742Z,7.40
2023-02-09T03:23:03.549Z,9.10
2023-02-09T03:25:35.573Z,11.40
2023-02-09T03:30:35.710Z,5.77
2023-02-09T03:33:08.748Z,7.70
2023-02-09T03:35:42.269Z,8.17
2023-02-09T03:38:10.485Z,14.70
2023-02-09T03:40:38.197Z,5.90
2023-02-09T03:43:05.859Z,8.27
2023-02-09T03:45:33.600Z,6.47
2023-02-09T03:48:01.671Z,6.47
2023-02-09T03:50:30.137Z,7.90
2023-02-09T03:52:57.809Z,11.67
2023-02-09T03:55:25.474Z,4.63
2023-02-09T03:57:53.665Z,9.90
2023-02-09T04:00:21.539Z,8.03
2023-02-09T04:02:49.243Z,11.03
2023-02-09T04:05:17.024Z,3.77
2023-02-09T04:07:44.889Z,2.63
2023-02-09T04:10:13.176Z,6.23
2023-02-09T04:12:40.794Z,16.33
2023-02-09T04:15:08.814Z,9.23
2023-02-09T04:17:36.471Z,12.77
2023-02-09T04:20:04.536Z,7.43
2023-02-09T04:22:32.189Z,10.83
2023-02-09T04:25:00.048Z,18.77
2023-02-09T04:27:28.492Z,16.53
2023-02-09T04:29:56.149Z,7.63
2023-02-09T04:32:23.803Z,5.30
2023-02-09T04:34:51.473Z,13.40
2023-02-09T04:37:19.139Z,5.10
2023-02-09T04:39:46.838Z,6.07
2023-02-09T04:42:14.554Z,6.80
2023-02-09T04:44:42.185Z,21.77
2023-02-09T04:47:09.894Z,1.07
2023-02-09T04:49:37.616Z,6.27
2023-02-09T04:52:05.487Z,4.93
2023-02-09T04:54:33.202Z,6.47
2023-02-09T04:57:14.779Z,5.70
2023-02-09T04:59:44.981Z,4.72
2023-02-09T05:02:13.086Z,4.53
2023-02-09T05:04:40.832Z,5.17
2023-02-09T05:07:08.457Z,4.73
2023-02-09T05:09:36.091Z,4.40
2023-02-09T05:12:03.847Z,2.43
2023-02-09T05:14:31.504Z,8.87
2023-02-09T05:16:59.206Z,24.17
2023-02-09T05:19:26.957Z,17.40
2023-02-09T05:21:54.592Z,10.33
2023-02-09T05:24:22.252Z,21.33
2023-02-09T05:26:49.912Z,22.73
2023-02-09T05:29:17.645Z,20.43
2023-02-09T05:31:45.479Z,6.33
2023-02-09T05:34:13.279Z,1.60
2023-02-09T05:36:40.994Z,5.13
2023-02-09T05:39:08.615Z,10.87
2023-02-09T05:41:54.035Z,6.80
2023-02-09T05:44:21.914Z,12.40
2023-02-09T05:46:50.936Z,10.30
2023-02-09T05:49:18.745Z,9.30
2023-02-09T05:51:46.374Z,8.70
2023-02-09T05:54:14.077Z,4.03
2023-02-09T05:56:41.891Z,9.80
2023-02-09T05:59:09.588Z,3.00
2023-02-09T06:01:37.359Z,4.33
2023-02-09T06:04:05.134Z,6.57
2023-02-09T06:06:33.011Z,6.10
2023-02-09T06:09:00.780Z,3.87
2023-02-09T06:11:28.673Z,6.00
2023-02-09T06:13:56.396Z,3.37
2023-02-09T06:16:24.101Z,2.87
2023-02-09T06:18:51.858Z,1.97
2023-02-09T06:21:19.635Z,4.80
2023-02-09T06:23:47.473Z,3.30
2023-02-09T06:26:17.847Z,5.50
2023-02-09T06:28:45.984Z,5.97
2023-02-09T06:31:13.979Z,8.80
2023-02-09T06:33:41.727Z,2.10
2023-02-09T06:36:10.059Z,3.87
2023-02-09T06:38:38.704Z,7.90
2023-02-09T06:41:07.457Z,8.57
2023-02-09T06:43:35.307Z,3.43
2023-02-09T06:46:11.198Z,7.60
2023-02-09T06:48:40.574Z,3.43
2023-02-09T06:51:14.142Z,8.17
2023-02-09T06:53:43.715Z,4.37
2023-02-09T06:56:13.219Z,8.00
2023-02-09T06:58:42.240Z,7.20
2023-02-09T07:01:15.890Z,8.43
2023-02-09T07:03:44.590Z,12.33
2023-02-09T07:06:15.798Z,8.13
2023-02-09T07:08:47.115Z,7.93
2023-02-09T07:11:17.226Z,16.13
2023-02-09T07:13:45.959Z,10.17
2023-02-09T07:16:14.612Z,9.33
2023-02-09T07:18:42.475Z,10.00
2023-02-09T07:21:18.504Z,6.37
2023-02-09T07:23:47.126Z,4.20
2023-02-09T07:26:17.725Z,6.87
2023-02-09T07:28:45.513Z,5.03
2023-02-09T07:31:14.927Z,6.57
2023-02-09T07:33:43.039Z,3.70
2023-02-09T07:36:13.453Z,8.77
2023-02-09T07:38:41.985Z,5.13
2023-02-09T07:41:15.852Z,3.03
2023-02-09T07:43:43.612Z,7.70
2023-02-09T07:46:12.735Z,8.90
2023-02-09T07:48:40.390Z,5.93
2023-02-09T07:51:08.057Z,7.07
2023-02-09T07:53:35.874Z,10.33
2023-02-09T07:56:06.611Z,12.33
2023-02-09T07:58:34.304Z,17.43
2023-02-09T08:01:07.194Z,21.73
2023-02-09T08:03:39.161Z,20.80
2023-02-09T08:08:40.855Z,10.80
2023-02-09T08:11:08.562Z,8.17
2023-02-09T08:13:40.886Z,11.60
2023-02-09T08:16:13.783Z,20.63
2023-02-09T08:18:46.035Z,4.33
2023-02-09T08:21:16.747Z,12.57
2023-02-09T08:23:47.196Z,8.67
2023-02-09T08:26:15.554Z,5.20
2023-02-09T08:28:45.059Z,5.10
2023-02-09T08:31:14.641Z,3.90
2023-02-09T08:33:43.579Z,5.57
2023-02-09T08:36:13.028Z,4.60
2023-02-09T08:38:40.779Z,2.17
2023-02-09T08:41:11.117Z,3.23
2023-02-09T08:43:38.804Z,4.33
2023-02-09T08:46:08.824Z,2.00
2023-02-09T08:48:38.925Z,5.67
2023-02-09T08:51:08.704Z,2.93
2023-02-09T08:53:36.828Z,2.80
2023-02-09T08:56:04.776Z,7.00
2023-02-09T08:58:33.396Z,3.67
2023-02-09T09:01:01.111Z,2.23
2023-02-09T09:03:31.720Z,2.60
2023-02-09T09:06:05.906Z,2.33
2023-02-09T09:08:35.206Z,3.40
2023-02-09T09:11:02.960Z,3.90
2023-02-09T09:13:30.817Z,11.07
2023-02-09T09:15:58.605Z,6.57
2023-02-09T09:18:27.422Z,4.50
2023-02-09T09:20:56.205Z,3.07
2023-02-09T09:23:23.905Z,17.13
2023-02-09T09:25:51.561Z,2.70
2023-02-09T09:28:19.442Z,5.63
2023-02-09T09:30:47.172Z,5.57
2023-02-09T09:33:14.983Z,4.50
2023-02-09T09:35:42.973Z,5.90
2023-02-09T09:38:10.686Z,2.03
2023-02-09T09:40:42.090Z,1.80
2023-02-09T09:43:22.224Z,4.70
2023-02-09T09:45:50.601Z,2.47
2023-02-09T09:48:25.791Z,7.07
2023-02-09T09:50:58.225Z,2.37
2023-02-09T09:53:33.317Z,1.77
2023-02-09T09:56:05.535Z,2.70
2023-02-09T09:58:34.859Z,1.67
2023-02-09T10:01:02.756Z,6.77
2023-02-09T10:03:30.449Z,2.47
2023-02-09T10:06:02.872Z,3.40
2023-02-09T10:08:36.742Z,6.73
2023-02-09T10:11:14.017Z,1.80
2023-02-09T10:13:50.597Z,3.93
2023-02-09T10:16:25.980Z,3.83
2023-02-09T10:18:58.867Z,5.03
2023-02-09T10:21:30.464Z,2.90
2023-02-09T10:24:00.991Z,1.98
2023-02-09T10:26:31.915Z,4.33
2023-02-09T10:29:24.987Z,3.10
2023-02-09T10:32:04.245Z,2.63
2023-02-09T10:34:34.006Z,3.83
2023-02-09T10:37:35.835Z,4.83
2023-02-09T10:40:18.826Z,6.30
2023-02-09T10:43:01.203Z,2.53
2023-02-09T10:45:28.842Z,1.03
2023-02-09T10:48:16.294Z,4.83
2023-02-09T10:50:53.278Z,3.20
2023-02-09T10:53:26.166Z,2.57
2023-02-09T10:56:02.699Z,2.10
2023-02-09T10:58:33.560Z,1.87
2023-02-09T11:01:18.175Z,1.10
2023-02-09T11:04:07.509Z,2.53
2023-02-09T11:06:45.096Z,5.77
2023-02-09T11:09:19.386Z,3.73
2023-02-09T11:11:47.775Z,5.63
2023-02-09T11:14:18.055Z,3.00
2023-02-09T11:16:54.956Z,1.20
2023-02-09T11:20:01.524Z,3.60
2023-02-09T11:23:00.049Z,2.07
2023-02-09T11:25:38.152Z,2.40
2023-02-09T11:28:15.020Z,3.87
2023-02-09T11:30:46.018Z,4.83
2023-02-09T11:33:45.115Z,3.05
2023-02-09T11:36:21.692Z,2.00
2023-02-09T11:39:15.200Z,8.17
2023-02-09T11:42:23.779Z,2.57
2023-02-09T11:44:54.297Z,4.87
2023-02-09T11:47:31.601Z,4.87
2023-02-09T11:50:03.033Z,4.10
2023-02-09T11:52:49.999Z,2.63
2023-02-09T11:55:28.844Z,4.53
2023-02-09T11:58:09.373Z,5.50
2023-02-09T12:00:57.795Z,5.97
2023-02-09T12:03:27.429Z,2.23
2023-02-09T12:05:56.195Z,6.20
2023-02-09T12:08:39.840Z,5.57
2023-02-09T12:11:10.478Z,1.90
2023-02-09T12:13:50.738Z,6.57
2023-02-09T12:16:25.970Z,3.67
2023-02-09T12:18:56.262Z,5.47
2023-02-09T12:21:38.453Z,3.33
2023-02-09T12:24:33.872Z,4.50
2023-02-09T12:27:02.019Z,6.73
2023-02-09T12:29:36.035Z,7.50
2023-02-09T12:32:08.076Z,9.37
2023-02-09T12:34:44.054Z,5.23
2023-02-09T12:37:14.804Z,4.30
2023-02-09T12:40:03.744Z,5.80
2023-02-09T12:42:39.725Z,4.57
2023-02-09T12:45:38.409Z,2.77
2023-02-09T12:48:09.120Z,5.13
2023-02-09T12:50:51.955Z,8.47
2023-02-09T12:53:26.370Z,5.10
2023-02-09T12:56:17.002Z,3.90
2023-02-09T12:58:47.491Z,1.80
2023-02-09T13:01:16.747Z,2.70
2023-02-09T13:04:06.328Z,3.83
2023-02-09T13:06:56.137Z,2.33
2023-02-09T13:09:29.650Z,7.40
2023-02-09T13:12:30.208Z,2.60
2023-02-09T13:14:57.894Z,3.83
2023-02-09T13:18:14.771Z,21.87
2023-02-09T13:21:00.567Z,7.10
2023-02-09T13:23:34.795Z,5.67
2023-02-09T13:26:24.509Z,2.90
2023-02-09T13:29:28.637Z,12.43
2023-02-09T13:32:21.571Z,3.30
2023-02-09T13:35:13.462Z,2.27
2023-02-09T13:37:55.832Z,3.20
2023-02-09T13:40:28.620Z,4.40
2023-02-09T13:43:11.648Z,6.47
2023-02-09T13:45:56.740Z,1.87
2023-02-09T13:48:36.800Z,6.77
2023-02-09T13:51:19.748Z,4.03
2023-02-09T13:54:02.551Z,6.27
2023-02-09T13:56:32.819Z,3.50
2023-02-09T13:59:01.388Z,4.87
2023-02-09T14:01:33.816Z,4.67
2023-02-09T14:04:12.797Z,2.33
2023-02-09T14:06:43.634Z,3.43
2023-02-09T14:09:34.052Z,8.10
2023-02-09T14:12:08.636Z,4.53
2023-02-09T14:15:01.106Z,4.97
2023-02-09T14:17:34.896Z,3.35
2023-02-09T14:20:03.282Z,5.00
2023-02-09T14:22:39.534Z,10.83
2023-02-09T14:25:19.693Z,3.87
2023-02-09T14:27:49.285Z,5.77
2023-02-09T14:30:23.124Z,3.00
2023-02-09T14:33:03.446Z,5.93
2023-02-09T14:35:59.207Z,6.93
2023-02-09T14:38:42.814Z,7.47
2023-02-09T14:41:30.460Z,6.93
2023-02-09T14:44:20.238Z,5.40
2023-02-09T14:46:49.268Z,3.23
2023-02-09T14:49:17.112Z,6.43
2023-02-09T14:51:45.943Z,3.97
2023-02-09T14:54:30.634Z,5.67
2023-02-09T14:57:00.898Z,2.50
2023-02-09T14:59:28.757Z,5.67
2023-02-09T15:01:56.622Z,1.93
2023-02-09T15:04:24.341Z,5.53
2023-02-09T15:07:01.633Z,6.77
2023-02-09T15:09:38.934Z,4.27
2023-02-09T15:12:07.945Z,8.57
2023-02-09T15:14:45.815Z,10.20
2023-02-09T15:17:19.291Z,1.47
2023-02-09T15:19:47.906Z,4.00
2023-02-09T15:22:16.702Z,3.27
2023-02-09T15:24:46.118Z,4.80
2023-02-09T15:27:34.241Z,5.00
2023-02-09T15:30:04.800Z,3.77
2023-02-09T15:32:32.749Z,6.97
2023-02-09T15:35:00.411Z,4.90
2023-02-09T15:37:34.402Z,5.03
2023-02-09T15:40:42.637Z,6.43
2023-02-09T15:43:38.820Z,6.27
2023-02-09T15:46:25.394Z,4.13
2023-02-09T15:48:53.135Z,8.07
2023-02-09T15:51:20.832Z,5.30
2023-02-09T15:53:49.152Z,3.03
2023-02-09T15:56:17.122Z,10.20
2023-02-09T15:58:48.152Z,5.37
2023-02-09T16:01:17.897Z,4.15
2023-02-09T16:03:46.253Z,2.90
2023-02-09T16:06:15.762Z,6.07
2023-02-09T16:08:44.561Z,1.43
2023-02-09T16:11:27.327Z,2.23
2023-02-09T16:13:55.364Z,4.00
2023-02-09T16:16:24.788Z,5.47
2023-02-09T16:18:52.933Z,4.97
2023-02-09T16:21:29.012Z,5.37
2023-02-09T16:23:59.824Z,5.47
2023-02-09T16:26:29.073Z,3.80
2023-02-09T16:28:57.538Z,4.50
2023-02-09T16:31:25.600Z,2.53
2023-02-09T16:33:53.451Z,5.53
2023-02-09T16:36:27.466Z,9.73
2023-02-09T16:38:55.288Z,8.53
2023-02-09T16:41:40.261Z,10.43
2023-02-09T16:44:16.915Z,2.93
2023-02-09T16:46:45.798Z,8.93
2023-02-09T16:49:31.852Z,5.97
2023-02-09T16:52:07.298Z,6.30
2023-02-09T16:54:44.454Z,3.43
2023-02-09T16:57:14.400Z,4.73
2023-02-09T16:59:42.162Z,6.07
2023-02-09T17:02:43.543Z,4.13
2023-02-09T17:05:18.042Z,9.80
2023-02-09T17:07:54.619Z,10.33
2023-02-09T17:10:26.426Z,3.87
2023-02-09T17:12:54.190Z,4.40
2023-02-09T17:15:31.969Z,15.10
2023-02-09T17:18:06.664Z,11.63
2023-02-09T17:20:47.184Z,15.67
2023-02-09T17:23:22.913Z,20.50
2023-02-09T17:25:54.888Z,8.10
2023-02-09T17:28:23.900Z,7.05
2023-02-09T17:30:52.645Z,8.63
2023-02-09T17:33:25.999Z,12.07
2023-02-09T17:36:24.489Z,7.30
2023-02-09T17:38:47.014Z,8.23
2023-02-09T17:41:18.969Z,5.07
2023-02-09T17:46:18.880Z,8.60
2023-02-09T17:48:49.072Z,2.63
2023-02-09T17:51:29.563Z,10.50
2023-02-09T17:53:57.717Z,14.73
2023-02-09T17:56:25.431Z,9.73
2023-02-09T17:58:53.370Z,3.27
2023-02-09T18:01:29.978Z,5.40
2023-02-09T18:03:59.631Z,6.50
2023-02-09T18:06:37.759Z,19.27
2023-02-09T18:09:08.396Z,6.90
2023-02-09T18:12:02.062Z,10.37
2023-02-09T18:14:32.981Z,11.73
2023-02-09T18:17:01.738Z,14.27
2023-02-09T18:19:29.532Z,6.00
2023-02-09T18:21:59.313Z,9.03
2023-02-09T18:24:31.074Z,9.43
2023-02-09T18:26:59.602Z,10.10
2023-02-09T18:29:29.489Z,7.00
2023-02-09T18:32:01.805Z,10.37
2023-02-09T18:34:30.442Z,11.37
2023-02-09T18:36:58.475Z,12.20
2023-02-09T18:39:26.163Z,2.87
2023-02-09T18:41:55.213Z,2.17
2023-02-09T18:44:29.172Z,9.60
2023-02-09T18:46:58.318Z,4.03
2023-02-09T18:49:25.956Z,16.90
2023-02-09T18:51:53.648Z,11.63
2023-02-09T18:54:21.377Z,6.53
2023-02-09T18:56:49.042Z,5.27
2023-02-09T18:59:17.737Z,10.30
2023-02-09T19:01:46.524Z,9.00
2023-02-09T19:04:14.363Z,14.97
2023-02-09T19:06:42.081Z,16.57
2023-02-09T19:09:09.747Z,17.33
2023-02-09T19:11:37.566Z,11.93
2023-02-09T19:14:22.547Z,12.23
2023-02-09T19:16:50.309Z,12.73
2023-02-09T19:19:19.087Z,6.43
2023-02-09T19:21:47.582Z,8.17
2023-02-09T19:24:15.224Z,9.23
2023-02-09T19:26:42.932Z,18.90
2023-02-09T19:29:10.591Z,13.97
2023-02-09T19:31:38.310Z,11.23
2023-02-09T19:34:05.953Z,9.63
2023-02-09T19:36:33.939Z,12.43
2023-02-09T19:39:02.429Z,15.50
2023-02-09T19:41:30.190Z,9.43
2023-02-09T19:43:59.370Z,6.93
2023-02-09T19:46:27.161Z,20.87
2023-02-09T19:48:54.822Z,24.10
2023-02-09T19:51:23.571Z,46.67
2023-02-09T19:53:51.642Z,45.30
2023-02-09T19:56:20.811Z,31.43
2023-02-09T19:58:48.551Z,23.43
2023-02-09T20:01:17.106Z,10.13
2023-02-09T20:03:44.859Z,19.43
2023-02-09T20:06:15.048Z,20.80
2023-02-09T20:08:43.328Z,32.43
2023-02-09T20:11:14.450Z,20.10
2023-02-09T20:13:42.314Z,22.83
2023-02-09T20:16:12.407Z,36.20
2023-02-09T20:18:41.144Z,47.43
2023-02-09T20:21:09.710Z,29.20
2023-02-09T20:23:38.358Z,21.27
2023-02-09T20:26:12.988Z,24.53
2023-02-09T20:28:41.221Z,31.17
2023-02-09T20:31:10.322Z,16.40
2023-02-09T20:33:40.192Z,18.47
2023-02-09T20:36:10.137Z,8.37
2023-02-09T20:38:38.849Z,7.77
2023-02-09T20:41:16.425Z,19.83
2023-02-09T20:44:02.856Z,15.40
2023-02-09T20:46:49.897Z,9.57
2023-02-09T20:49:18.865Z,26.77
2023-02-09T20:51:47.064Z,24.00
2023-02-09T20:54:15.012Z,52.33
2023-02-09T20:56:42.854Z,49.73
2023-02-09T20:59:12.362Z,47.37
2023-02-09T21:01:40.526Z,46.70
2023-02-09T21:04:08.863Z,52.13
2023-02-09T21:06:38.004Z,19.20
2023-02-09T21:09:11.657Z,17.03
2023-02-09T21:11:39.383Z,19.33
2023-02-09T21:14:07.197Z,14.43
2023-02-09T21:16:36.482Z,36.93
2023-02-09T21:19:04.715Z,27.73
2023-02-09T21:21:32.397Z,20.70
2023-02-09T21:24:00.695Z,15.83
2023-02-09T21:26:30.048Z,24.07
2023-02-09T21:28:59.024Z,24.97
2023-02-09T21:31:28.961Z,23.97
2023-02-09T21:33:56.713Z,15.50
2023-02-09T21:36:24.477Z,19.93
2023-02-09T21:38:52.133Z,25.83
2023-02-09T21:41:43.341Z,22.17
2023-02-09T21:44:12.975Z,31.93
2023-02-09T21:46:40.731Z,31.00
2023-02-09T21:49:08.803Z,23.33
2023-02-09T21:51:36.739Z,18.97
2023-02-09T21:54:04.575Z,26.90
2023-02-09T21:56:32.379Z,21.53
2023-02-09T21:59:00.054Z,20.93
2023-02-09T22:01:27.810Z,24.87
2023-02-09T22:03:57.362Z,17.03
2023-02-09T22:06:26.646Z,11.70
2023-02-09T22:08:54.675Z,22.60
2023-02-09T22:11:24.016Z,31.70
2023-02-09T22:13:51.714Z,28.97
2023-02-09T22:16:21.812Z,19.83
2023-02-09T22:18:49.554Z,24.13
2023-02-09T22:21:18.134Z,38.23
2023-02-09T22:23:45.946Z,33.43
2023-02-09T22:26:14.048Z,36.37
2023-02-09T22:28:42.650Z,50.43
2023-02-09T22:31:19.181Z,37.50
2023-02-09T22:33:47.104Z,32.63
2023-02-09T22:36:19.541Z,35.33
2023-02-09T22:38:47.632Z,30.50
2023-02-09T22:41:22.288Z,50.37
2023-02-09T22:43:52.886Z,40.70
2023-02-09T22:46:23.241Z,28.10
2023-02-09T22:48:56.359Z,23.00
2023-02-09T22:51:26.928Z,16.03
2023-02-09T22:53:55.249Z,17.70
2023-02-09T22:56:23.066Z,14.50
2023-02-09T22:58:50.918Z,27.33
2023-02-09T23:01:18.824Z,37.50
2023-02-09T23:03:46.633Z,34.37
2023-02-09T23:06:19.155Z,41.33
2023-02-09T23:08:47.169Z,35.57
2023-02-09T23:11:17.698Z,31.00
2023-02-09T23:13:45.724Z,33.37
2023-02-09T23:16:14.749Z,30.03
2023-02-09T23:18:51.641Z,22.57
2023-02-09T23:21:20.706Z,27.63
2023-02-09T23:23:48.591Z,17.27
2023-02-09T23:26:17.650Z,13.73
2023-02-09T23:28:46.271Z,22.97
2023-02-09T23:31:19.017Z,19.53
2023-02-09T23:33:46.697Z,23.03
2023-02-09T23:36:20.534Z,14.43
2023-02-09T23:38:48.826Z,18.57
2023-02-09T23:41:19.608Z,17.90
2023-02-09T23:43:48.306Z,19.30
2023-02-09T23:46:18.649Z,10.27
2023-02-09T23:48:46.868Z,23.00
2023-02-09T23:51:18.348Z,18.67
2023-02-09T23:53:46.974Z,13.02
2023-02-09T23:56:16.589Z,22.63
2023-02-09T23:58:47.652Z,18.67
